sensor_id;sensor_type;location;lat;lon;timestamp;pressure;altitude;pressure_sealevel;temperature;humidity
21664;BME280;10993;52.510;13.456;2022-11-20T00:04:18;-26181.75;;;1.67;100.00
21664;BME280;10993;52.510;13.456;2022-11-20T00:09:20;-26173.97;;;1.42;100.00
21664;BME280;10993;52.510;13.456;2022-11-20T00:14:20;-26176.19;;;1.49;100.00
21664;BME280;10993;52.510;13.456;2022-11-20T00:19:21;-26175.22;;;1.46;100.00
21664;BME280;10993;52.510;13.456;2022-11-20T00:24:22;-26173.31;;;1.40;100.00
21664;BME280;10993;52.510;13.456;2022-11-20T00:29:22;-26174.28;;;1.43;100.00
21664;BME280;10993;52.510;13.456;2022-11-20T00:34:23;-26168.25;;;1.24;100.00
21664;BME280;10993;52.510;13.456;2022-11-20T00:39:24;-26172.38;;;1.37;100.00
21664;BME280;10993;52.510;13.456;2022-11-20T00:44:25;-26178.25;;;1.56;100.00
21664;BME280;10993;52.510;13.456;2022-11-20T00:49:25;-26178.25;;;1.56;100.00
21664;BME280;10993;52.510;13.456;2022-11-20T00:54:27;-26174.13;;;1.43;100.00
21664;BME280;10993;52.510;13.456;2022-11-20T00:59:27;-26176.03;;;1.49;100.00
21664;BME280;10993;52.510;13.456;2022-11-20T01:04:27;-26177.47;;;1.54;100.00
21664;BME280;10993;52.510;13.456;2022-11-20T01:09:29;-26178.56;;;1.57;100.00
21664;BME280;10993;52.510;13.456;2022-11-20T01:14:29;-26179.69;;;1.61;100.00
21664;BME280;10993;52.510;13.456;2022-11-20T01:19:30;-26178.56;;;1.57;100.00
21664;BME280;10993;52.510;13.456;2022-11-20T01:24:31;-26180.63;;;1.64;100.00
21664;BME280;10993;52.510;13.456;2022-11-20T01:29:32;-26178.72;;;1.58;100.00
21664;BME280;10993;52.510;13.456;2022-11-20T01:34:32;-26172.53;;;1.38;100.00
21664;BME280;10993;52.510;13.456;2022-11-20T01:39:34;-26174.28;;;1.43;100.00
21664;BME280;10993;52.510;13.456;2022-11-20T01:44:49;-26175.72;;;1.48;100.00
21664;BME280;10993;52.510;13.456;2022-11-20T01:49:53;-26180.31;;;1.63;100.00
21664;BME280;10993;52.510;13.456;2022-11-20T01:55:00;-26180.00;;;1.62;100.00
21664;BME280;10993;52.510;13.456;2022-11-20T02:00:05;-26175.88;;;1.48;100.00
21664;BME280;10993;52.510;13.456;2022-11-20T02:05:14;-26179.22;;;1.59;100.00
21664;BME280;10993;52.510;13.456;2022-11-20T02:10:18;-26174.44;;;1.44;100.00
21664;BME280;10993;52.510;13.456;2022-11-20T02:15:19;-26172.38;;;1.37;100.00
21664;BME280;10993;52.510;13.456;2022-11-20T02:20:19;-26170.94;;;1.32;100.00
21664;BME280;10993;52.510;13.456;2022-11-20T02:25:21;-26164.91;;;1.13;100.00
21664;BME280;10993;52.510;13.456;2022-11-20T02:30:23;-26162.19;;;1.04;100.00
21664;BME280;10993;52.510;13.456;2022-11-20T02:35:42;-26170.47;;;1.31;100.00
21664;BME280;10993;52.510;13.456;2022-11-20T02:40:44;-26168.41;;;1.24;100.00
21664;BME280;10993;52.510;13.456;2022-11-20T02:45:44;-26160.44;;;0.98;100.00
21664;BME280;10993;52.510;13.456;2022-11-20T02:50:44;-26164.56;;;1.12;100.00
21664;BME280;10993;52.510;13.456;2022-11-20T02:55:46;-26161.88;;;1.03;100.00
21664;BME280;10993;52.510;13.456;2022-11-20T03:00:46;-26165.22;;;1.14;100.00
21664;BME280;10993;52.510;13.456;2022-11-20T03:05:47;-26163.78;;;1.09;100.00
21664;BME280;10993;52.510;13.456;2022-11-20T03:10:48;-26170.16;;;1.30;100.00
21664;BME280;10993;52.510;13.456;2022-11-20T03:15:49;-26161.72;;;1.03;100.00
21664;BME280;10993;52.510;13.456;2022-11-20T03:20:49;-26163.78;;;1.09;100.00
21664;BME280;10993;52.510;13.456;2022-11-20T03:25:51;-26166.31;;;1.17;100.00
21664;BME280;10993;52.510;13.456;2022-11-20T03:30:51;-26162.66;;;1.06;100.00
21664;BME280;10993;52.510;13.456;2022-11-20T03:35:52;-26166.66;;;1.19;100.00
21664;BME280;10993;52.510;13.456;2022-11-20T03:40:58;-26168.88;;;1.26;100.00
21664;BME280;10993;52.510;13.456;2022-11-20T03:45:58;-26166.47;;;1.18;100.00
21664;BME280;10993;52.510;13.456;2022-11-20T03:51:11;-26161.88;;;1.03;100.00
21664;BME280;10993;52.510;13.456;2022-11-20T03:56:14;-26164.09;;;1.10;100.00
21664;BME280;10993;52.510;13.456;2022-11-20T04:01:16;-26165.38;;;1.14;100.00
21664;BME280;10993;52.510;13.456;2022-11-20T04:06:19;-26169.66;;;1.28;100.00
21664;BME280;10993;52.510;13.456;2022-11-20T04:11:22;-26169.81;;;1.29;100.00
21664;BME280;10993;52.510;13.456;2022-11-20T04:16:24;-26169.81;;;1.29;100.00
21664;BME280;10993;52.510;13.456;2022-11-20T04:21:25;-26163.94;;;1.10;100.00
21664;BME280;10993;52.510;13.456;2022-11-20T04:26:29;-26162.03;;;1.04;100.00
21664;BME280;10993;52.510;13.456;2022-11-20T04:31:32;-26154.06;;;0.78;100.00
21664;BME280;10993;52.510;13.456;2022-11-20T04:36:33;-26161.41;;;1.02;100.00
21664;BME280;10993;52.510;13.456;2022-11-20T04:41:36;-26160.28;;;0.98;100.00
21664;BME280;10993;52.510;13.456;2022-11-20T04:46:38;-26152.97;;;0.74;100.00
21664;BME280;10993;52.510;13.456;2022-11-20T04:51:39;-26153.59;;;0.76;100.00
21664;BME280;10993;52.510;13.456;2022-11-20T04:56:41;-26153.13;;;0.75;100.00
21664;BME280;10993;52.510;13.456;2022-11-20T05:01:41;-26148.19;;;0.59;100.00
21664;BME280;10993;52.510;13.456;2022-11-20T05:06:42;-26148.97;;;0.61;100.00
21664;BME280;10993;52.510;13.456;2022-11-20T05:11:43;-26151.69;;;0.70;100.00
21664;BME280;10993;52.510;13.456;2022-11-20T05:16:44;-26145.63;;;0.50;100.00
21664;BME280;10993;52.510;13.456;2022-11-20T05:21:44;-26146.91;;;0.55;100.00
21664;BME280;10993;52.510;13.456;2022-11-20T05:26:45;-26147.22;;;0.56;100.00
21664;BME280;10993;52.510;13.456;2022-11-20T05:31:46;-26153.59;;;0.76;100.00
21664;BME280;10993;52.510;13.456;2022-11-20T05:36:46;-26156.47;;;0.86;100.00
21664;BME280;10993;52.510;13.456;2022-11-20T05:41:48;-26156.63;;;0.86;100.00
21664;BME280;10993;52.510;13.456;2022-11-20T05:47:08;-26154.88;;;0.80;100.00
21664;BME280;10993;52.510;13.456;2022-11-20T05:52:08;-26155.50;;;0.82;100.00
21664;BME280;10993;52.510;13.456;2022-11-20T05:57:10;-26154.88;;;0.80;100.00
21664;BME280;10993;52.510;13.456;2022-11-20T06:02:11;-26155.81;;;0.83;100.00
21664;BME280;10993;52.510;13.456;2022-11-20T06:07:11;-26164.72;;;1.12;100.00
21664;BME280;10993;52.510;13.456;2022-11-20T06:12:13;-26163.47;;;1.08;100.00
21664;BME280;10993;52.510;13.456;2022-11-20T06:17:13;-26163.00;;;1.07;100.00
21664;BME280;10993;52.510;13.456;2022-11-20T06:22:13;-26160.75;;;0.99;100.00
21664;BME280;10993;52.510;13.456;2022-11-20T06:27:15;-26151.53;;;0.70;100.00
21664;BME280;10993;52.510;13.456;2022-11-20T06:32:16;-26156.47;;;0.86;100.00
21664;BME280;10993;52.510;13.456;2022-11-20T06:37:16;-26159.16;;;0.94;100.00
21664;BME280;10993;52.510;13.456;2022-11-20T06:42:18;-26159.81;;;0.96;100.00
21664;BME280;10993;52.510;13.456;2022-11-20T06:47:18;-26155.50;;;0.82;100.00
21664;BME280;10993;52.510;13.456;2022-11-20T06:52:18;-26156.63;;;0.86;100.00
21664;BME280;10993;52.510;13.456;2022-11-20T06:57:20;-26150.56;;;0.66;100.00
21664;BME280;10993;52.510;13.456;2022-11-20T07:02:20;-26158.38;;;0.92;100.00
21664;BME280;10993;52.510;13.456;2022-11-20T07:07:21;-26166.00;;;1.16;100.00
21664;BME280;10993;52.510;13.456;2022-11-20T07:12:22;-26161.88;;;1.03;100.00
21664;BME280;10993;52.510;13.456;2022-11-20T07:17:23;-26164.56;;;1.12;100.00
21664;BME280;10993;52.510;13.456;2022-11-20T07:22:23;-26159.31;;;0.95;100.00
21664;BME280;10993;52.510;13.456;2022-11-20T07:27:25;-26163.16;;;1.07;100.00
21664;BME280;10993;52.510;13.456;2022-11-20T07:32:25;-26159.47;;;0.95;100.00
21664;BME280;10993;52.510;13.456;2022-11-20T07:37:26;-26162.81;;;1.06;100.00
21664;BME280;10993;52.510;13.456;2022-11-20T07:42:27;-26158.69;;;0.93;100.00
21664;BME280;10993;52.510;13.456;2022-11-20T07:47:28;-26159.31;;;0.95;100.00
21664;BME280;10993;52.510;13.456;2022-11-20T07:52:28;-26154.88;;;0.80;100.00
21664;BME280;10993;52.510;13.456;2022-11-20T07:57:30;-26164.72;;;1.12;100.00
21664;BME280;10993;52.510;13.456;2022-11-20T08:02:31;-26164.09;;;1.10;100.00
21664;BME280;10993;52.510;13.456;2022-11-20T08:07:35;-26167.13;;;1.20;100.00
21664;BME280;10993;52.510;13.456;2022-11-20T08:12:43;-26173.31;;;1.40;100.00
21664;BME280;10993;52.510;13.456;2022-11-20T08:18:04;-26171.25;;;1.33;100.00
21664;BME280;10993;52.510;13.456;2022-11-20T08:23:06;-26176.66;;;1.51;100.00
21664;BME280;10993;52.510;13.456;2022-11-20T08:28:09;-26173.97;;;1.42;100.00
21664;BME280;10993;52.510;13.456;2022-11-20T08:33:09;-26186.69;;;1.83;100.00
21664;BME280;10993;52.510;13.456;2022-11-20T08:38:10;-26187.47;;;1.86;100.00
21664;BME280;10993;52.510;13.456;2022-11-20T08:43:11;-26186.69;;;1.83;100.00
21664;BME280;10993;52.510;13.456;2022-11-20T08:48:12;-26182.22;;;1.69;100.00
21664;BME280;10993;52.510;13.456;2022-11-20T08:53:12;-26182.53;;;1.70;100.00
21664;BME280;10993;52.510;13.456;2022-11-20T08:58:14;-26171.41;;;1.34;100.00
21664;BME280;10993;52.510;13.456;2022-11-20T09:03:14;-26191.75;;;2.00;100.00
21664;BME280;10993;52.510;13.456;2022-11-20T09:08:14;-26185.88;;;1.81;100.00
21664;BME280;10993;52.510;13.456;2022-11-20T09:13:16;-26188.13;;;1.88;100.00
21664;BME280;10993;52.510;13.456;2022-11-20T09:18:16;-26201.47;;;2.31;100.00
21664;BME280;10993;52.510;13.456;2022-11-20T09:23:17;-26199.06;;;2.24;100.00
21664;BME280;10993;52.510;13.456;2022-11-20T09:28:19;-26196.22;;;2.14;100.00
21664;BME280;10993;52.510;13.456;2022-11-20T09:33:19;-26203.03;;;2.37;100.00
21664;BME280;10993;52.510;13.456;2022-11-20T09:38:20;-26202.88;;;2.36;100.00
21664;BME280;10993;52.510;13.456;2022-11-20T09:43:28;-26205.44;;;2.44;100.00
21664;BME280;10993;52.510;13.456;2022-11-20T09:48:52;-26208.44;;;2.54;100.00
21664;BME280;10993;52.510;13.456;2022-11-20T09:54:12;-26212.88;;;2.68;100.00
21664;BME280;10993;52.510;13.456;2022-11-20T09:59:26;-26212.56;;;2.67;100.00
21664;BME280;10993;52.510;13.456;2022-11-20T10:04:31;-26213.06;;;2.69;100.00
21664;BME280;10993;52.510;13.456;2022-11-20T10:09:35;-26214.47;;;2.74;100.00
21664;BME280;10993;52.510;13.456;2022-11-20T10:14:47;-26229.56;;;3.23;99.73
21664;BME280;10993;52.510;13.456;2022-11-20T10:19:58;-26221.63;;;2.97;99.90
21664;BME280;10993;52.510;13.456;2022-11-20T10:25:06;-26229.88;;;3.24;98.66
21664;BME280;10993;52.510;13.456;2022-11-20T10:30:16;-26213.69;;;2.71;97.37
21664;BME280;10993;52.510;13.456;2022-11-20T10:35:23;-26216.53;;;2.80;99.05
21664;BME280;10993;52.510;13.456;2022-11-20T10:40:30;-26214.31;;;2.73;100.00
21664;BME280;10993;52.510;13.456;2022-11-20T10:45:46;-26213.53;;;2.71;100.00
21664;BME280;10993;52.510;13.456;2022-11-20T10:51:07;-26219.25;;;2.89;100.00
21664;BME280;10993;52.510;13.456;2022-11-20T10:56:17;-26216.22;;;2.79;100.00
21664;BME280;10993;52.510;13.456;2022-11-20T11:01:21;-26227.81;;;3.17;100.00
21664;BME280;10993;52.510;13.456;2022-11-20T11:06:29;-26244.63;;;3.72;97.99
21664;BME280;10993;52.510;13.456;2022-11-20T11:11:33;-26256.50;;;4.10;96.75
21664;BME280;10993;52.510;13.456;2022-11-20T11:16:35;-26280.88;;;4.90;88.83
21664;BME280;10993;52.510;13.456;2022-11-20T11:21:35;-26274.88;;;4.70;90.35
21664;BME280;10993;52.510;13.456;2022-11-20T11:26:51;-26285.31;;;5.04;84.92
21664;BME280;10993;52.510;13.456;2022-11-20T11:32:04;-26291.66;;;5.25;85.46
21664;BME280;10993;52.510;13.456;2022-11-20T11:37:12;-26279.47;;;4.85;83.58
21664;BME280;10993;52.510;13.456;2022-11-20T11:42:17;-26271.72;;;4.60;88.64
21664;BME280;10993;52.510;13.456;2022-11-20T11:47:23;-26261.88;;;4.28;89.43
21664;BME280;10993;52.510;13.456;2022-11-20T11:52:25;-26254.59;;;4.04;91.04
21664;BME280;10993;52.510;13.456;2022-11-20T11:57:28;-26256.19;;;4.09;93.34
21664;BME280;10993;52.510;13.456;2022-11-20T12:02:36;-26247.78;;;3.82;94.84
21664;BME280;10993;52.510;13.456;2022-11-20T12:07:42;-26240.19;;;3.57;99.23
21664;BME280;10993;52.510;13.456;2022-11-20T12:12:46;-26235.25;;;3.41;100.00
21664;BME280;10993;52.510;13.456;2022-11-20T12:17:49;-26231.47;;;3.29;100.00
21664;BME280;10993;52.510;13.456;2022-11-20T12:22:54;-26234.31;;;3.38;100.00
21664;BME280;10993;52.510;13.456;2022-11-20T12:28:11;-26231.47;;;3.29;100.00
21664;BME280;10993;52.510;13.456;2022-11-20T12:33:28;-26247.00;;;3.79;100.00
21664;BME280;10993;52.510;13.456;2022-11-20T12:38:49;-26240.03;;;3.57;100.00
21664;BME280;10993;52.510;13.456;2022-11-20T12:44:04;-26234.63;;;3.39;100.00
21664;BME280;10993;52.510;13.456;2022-11-20T12:49:36;-26232.88;;;3.33;100.00
21664;BME280;10993;52.510;13.456;2022-11-20T12:54:46;-26219.56;;;2.90;100.00
21664;BME280;10993;52.510;13.456;2022-11-20T13:00:07;-26215.13;;;2.76;100.00
21664;BME280;10993;52.510;13.456;2022-11-20T13:05:20;-26213.69;;;2.71;100.00
21664;BME280;10993;52.510;13.456;2022-11-20T13:10:27;-26211.47;;;2.64;100.00
21664;BME280;10993;52.510;13.456;2022-11-20T13:15:43;-26210.50;;;2.61;100.00
21664;BME280;10993;52.510;13.456;2022-11-20T13:20:48;-26212.72;;;2.68;100.00
21664;BME280;10993;52.510;13.456;2022-11-20T13:25:49;-26217.50;;;2.83;100.00
21664;BME280;10993;52.510;13.456;2022-11-20T13:30:51;-26220.34;;;2.93;100.00
21664;BME280;10993;52.510;13.456;2022-11-20T13:35:57;-26225.59;;;3.10;100.00
21664;BME280;10993;52.510;13.456;2022-11-20T13:41:00;-26224.47;;;3.06;100.00
21664;BME280;10993;52.510;13.456;2022-11-20T13:46:35;-26214.78;;;2.75;100.00
21664;BME280;10993;52.510;13.456;2022-11-20T13:51:42;-26223.03;;;3.01;100.00
21664;BME280;10993;52.510;13.456;2022-11-20T13:56:53;-26232.25;;;3.31;100.00
21664;BME280;10993;52.510;13.456;2022-11-20T14:01:54;-26232.88;;;3.33;100.00
21664;BME280;10993;52.510;13.456;2022-11-20T14:06:57;-26227.50;;;3.16;100.00
21664;BME280;10993;52.510;13.456;2022-11-20T14:11:57;-26226.06;;;3.11;100.00
21664;BME280;10993;52.510;13.456;2022-11-20T14:17:06;-26219.09;;;2.89;100.00
21664;BME280;10993;52.510;13.456;2022-11-20T14:22:14;-26222.88;;;3.01;100.00
21664;BME280;10993;52.510;13.456;2022-11-20T14:27:18;-26226.53;;;3.13;100.00
21664;BME280;10993;52.510;13.456;2022-11-20T14:32:22;-26217.03;;;2.82;100.00
21664;BME280;10993;52.510;13.456;2022-11-20T14:37:31;-26217.66;;;2.84;100.00
21664;BME280;10993;52.510;13.456;2022-11-20T14:42:33;-26201.13;;;2.30;100.00
21664;BME280;10993;52.510;13.456;2022-11-20T14:47:34;-26197.97;;;2.20;100.00
21664;BME280;10993;52.510;13.456;2022-11-20T14:52:36;-26204.94;;;2.43;100.00
21664;BME280;10993;52.510;13.456;2022-11-20T14:57:37;-26203.53;;;2.38;100.00
21664;BME280;10993;52.510;13.456;2022-11-20T15:02:40;-26200.81;;;2.29;100.00
21664;BME280;10993;52.510;13.456;2022-11-20T15:07:44;-26196.84;;;2.16;100.00
21664;BME280;10993;52.510;13.456;2022-11-20T15:12:50;-26198.13;;;2.21;100.00
21664;BME280;10993;52.510;13.456;2022-11-20T15:17:51;-26199.56;;;2.25;100.00
21664;BME280;10993;52.510;13.456;2022-11-20T15:22:53;-26205.28;;;2.44;100.00
21664;BME280;10993;52.510;13.456;2022-11-20T15:27:55;-26204.31;;;2.41;100.00
21664;BME280;10993;52.510;13.456;2022-11-20T15:32:56;-26201.63;;;2.32;100.00
21664;BME280;10993;52.510;13.456;2022-11-20T15:37:57;-26201.28;;;2.31;100.00
21664;BME280;10993;52.510;13.456;2022-11-20T15:42:58;-26200.97;;;2.30;100.00
21664;BME280;10993;52.510;13.456;2022-11-20T15:48:05;-26200.66;;;2.29;100.00
21664;BME280;10993;52.510;13.456;2022-11-20T15:53:10;-26203.84;;;2.39;100.00
21664;BME280;10993;52.510;13.456;2022-11-20T15:58:10;-26204.00;;;2.40;100.00
21664;BME280;10993;52.510;13.456;2022-11-20T16:03:11;-26202.72;;;2.36;100.00
21664;BME280;10993;52.510;13.456;2022-11-20T16:08:13;-26194.00;;;2.07;100.00
21664;BME280;10993;52.510;13.456;2022-11-20T16:13:15;-26185.56;;;1.80;100.00
21664;BME280;10993;52.510;13.456;2022-11-20T16:18:35;-26176.97;;;1.52;100.00
21664;BME280;10993;52.510;13.456;2022-11-20T16:23:36;-26167.91;;;1.23;100.00
21664;BME280;10993;52.510;13.456;2022-11-20T16:28:37;-26163.78;;;1.09;100.00
21664;BME280;10993;52.510;13.456;2022-11-20T16:33:37;-26160.44;;;0.98;100.00
21664;BME280;10993;52.510;13.456;2022-11-20T16:38:39;-26155.03;;;0.81;100.00
21664;BME280;10993;52.510;13.456;2022-11-20T16:43:47;-26150.56;;;0.66;100.00
21664;BME280;10993;52.510;13.456;2022-11-20T16:48:52;-26145.00;;;0.48;100.00
21664;BME280;10993;52.510;13.456;2022-11-20T16:53:54;-26144.03;;;0.45;100.00
21664;BME280;10993;52.510;13.456;2022-11-20T16:58:57;-26140.84;;;0.35;100.00
21664;BME280;10993;52.510;13.456;2022-11-20T17:04:00;-26148.34;;;0.59;100.00
21664;BME280;10993;52.510;13.456;2022-11-20T17:09:02;-26150.56;;;0.66;100.00
21664;BME280;10993;52.510;13.456;2022-11-20T17:14:03;-26156.47;;;0.86;100.00
21664;BME280;10993;52.510;13.456;2022-11-20T17:19:04;-26155.19;;;0.81;100.00
21664;BME280;10993;52.510;13.456;2022-11-20T17:24:07;-26150.09;;;0.65;100.00
21664;BME280;10993;52.510;13.456;2022-11-20T17:29:11;-26156.47;;;0.86;100.00
21664;BME280;10993;52.510;13.456;2022-11-20T17:34:13;-26158.38;;;0.92;100.00
21664;BME280;10993;52.510;13.456;2022-11-20T17:39:16;-26162.03;;;1.04;100.00
21664;BME280;10993;52.510;13.456;2022-11-20T17:44:16;-26168.72;;;1.25;100.00
21664;BME280;10993;52.510;13.456;2022-11-20T17:49:17;-26174.13;;;1.43;100.00
21664;BME280;10993;52.510;13.456;2022-11-20T17:54:18;-26181.13;;;1.65;100.00
21664;BME280;10993;52.510;13.456;2022-11-20T17:59:19;-26181.44;;;1.66;100.00
21664;BME280;10993;52.510;13.456;2022-11-20T18:04:19;-26179.84;;;1.61;100.00
21664;BME280;10993;52.510;13.456;2022-11-20T18:09:21;-26174.28;;;1.43;100.00
21664;BME280;10993;52.510;13.456;2022-11-20T18:14:22;-26178.91;;;1.58;100.00
21664;BME280;10993;52.510;13.456;2022-11-20T18:19:33;-26171.88;;;1.36;100.00
21664;BME280;10993;52.510;13.456;2022-11-20T18:24:36;-26168.41;;;1.24;100.00
21664;BME280;10993;52.510;13.456;2022-11-20T18:29:38;-26169.50;;;1.28;100.00
21664;BME280;10993;52.510;13.456;2022-11-20T18:34:39;-26172.38;;;1.37;100.00
21664;BME280;10993;52.510;13.456;2022-11-20T18:39:40;-26178.41;;;1.57;100.00
21664;BME280;10993;52.510;13.456;2022-11-20T18:44:41;-26176.19;;;1.49;100.00
21664;BME280;10993;52.510;13.456;2022-11-20T18:49:51;-26174.28;;;1.43;100.00
21664;BME280;10993;52.510;13.456;2022-11-20T18:54:54;-26166.00;;;1.16;100.00
21664;BME280;10993;52.510;13.456;2022-11-20T18:59:55;-26159.16;;;0.94;100.00
21664;BME280;10993;52.510;13.456;2022-11-20T19:04:58;-26169.50;;;1.28;100.00
21664;BME280;10993;52.510;13.456;2022-11-20T19:10:00;-26163.31;;;1.08;100.00
21664;BME280;10993;52.510;13.456;2022-11-20T19:15:00;-26155.97;;;0.84;100.00
21664;BME280;10993;52.510;13.456;2022-11-20T19:20:01;-26148.50;;;0.60;100.00
21664;BME280;10993;52.510;13.456;2022-11-20T19:25:03;-26144.03;;;0.45;100.00
21664;BME280;10993;52.510;13.456;2022-11-20T19:30:04;-26143.09;;;0.42;100.00
21664;BME280;10993;52.510;13.456;2022-11-20T19:35:05;-26148.81;;;0.61;100.00
21664;BME280;10993;52.510;13.456;2022-11-20T19:40:07;-26146.28;;;0.53;100.00
21664;BME280;10993;52.510;13.456;2022-11-20T19:45:08;-26150.56;;;0.66;100.00
21664;BME280;10993;52.510;13.456;2022-11-20T19:50:08;-26148.50;;;0.60;100.00
21664;BME280;10993;52.510;13.456;2022-11-20T19:55:10;-26152.16;;;0.72;100.00
21664;BME280;10993;52.510;13.456;2022-11-20T20:00:11;-26156.28;;;0.85;100.00
21664;BME280;10993;52.510;13.456;2022-11-20T20:05:13;-26161.56;;;1.02;100.00
21664;BME280;10993;52.510;13.456;2022-11-20T20:10:15;-26160.59;;;0.99;100.00
21664;BME280;10993;52.510;13.456;2022-11-20T20:15:17;-26166.00;;;1.16;100.00
21664;BME280;10993;52.510;13.456;2022-11-20T20:20:17;-26157.72;;;0.90;100.00
21664;BME280;10993;52.510;13.456;2022-11-20T20:25:19;-26159.97;;;0.97;100.00
21664;BME280;10993;52.510;13.456;2022-11-20T20:30:19;-26163.47;;;1.08;100.00
21664;BME280;10993;52.510;13.456;2022-11-20T20:35:19;-26160.28;;;0.98;100.00
21664;BME280;10993;52.510;13.456;2022-11-20T20:40:22;-26147.06;;;0.55;100.00
21664;BME280;10993;52.510;13.456;2022-11-20T20:45:22;-26150.25;;;0.65;100.00
21664;BME280;10993;52.510;13.456;2022-11-20T20:50:23;-26141.50;;;0.37;100.00
21664;BME280;10993;52.510;13.456;2022-11-20T20:55:24;-26129.72;;;-0.01;100.00
21664;BME280;10993;52.510;13.456;2022-11-20T21:00:25;-26120.78;;;-0.30;100.00
21664;BME280;10993;52.510;13.456;2022-11-20T21:05:25;-26117.44;;;-0.41;100.00
21664;BME280;10993;52.510;13.456;2022-11-20T21:10:27;-26117.28;;;-0.41;100.00
21664;BME280;10993;52.510;13.456;2022-11-20T21:15:27;-26120.13;;;-0.32;100.00
21664;BME280;10993;52.510;13.456;2022-11-20T21:20:27;-26105.31;;;-0.80;100.00
21664;BME280;10993;52.510;13.456;2022-11-20T21:25:48;-26117.75;;;-0.40;100.00
21664;BME280;10993;52.510;13.456;2022-11-20T21:30:48;-26108.03;;;-0.71;100.00
21664;BME280;10993;52.510;13.456;2022-11-20T21:35:48;-26111.06;;;-0.61;100.00
21664;BME280;10993;52.510;13.456;2022-11-20T21:40:50;-26113.59;;;-0.53;100.00
21664;BME280;10993;52.510;13.456;2022-11-20T21:45:50;-26103.88;;;-0.85;100.00
21664;BME280;10993;52.510;13.456;2022-11-20T21:50:52;-26105.00;;;-0.81;100.00
21664;BME280;10993;52.510;13.456;2022-11-20T21:55:54;-26099.09;;;-1.00;100.00
21664;BME280;10993;52.510;13.456;2022-11-20T22:00:55;-26089.03;;;-1.32;100.00
21664;BME280;10993;52.510;13.456;2022-11-20T22:05:56;-26098.78;;;-1.01;100.00
21664;BME280;10993;52.510;13.456;2022-11-20T22:11:00;-26100.84;;;-0.94;100.00
21664;BME280;10993;52.510;13.456;2022-11-20T22:16:01;-26096.53;;;-1.08;100.00
21664;BME280;10993;52.510;13.456;2022-11-20T22:21:04;-26090.31;;;-1.28;100.00
21664;BME280;10993;52.510;13.456;2022-11-20T22:26:09;-26093.03;;;-1.20;100.00
21664;BME280;10993;52.510;13.456;2022-11-20T22:31:10;-26087.59;;;-1.37;100.00
21664;BME280;10993;52.510;13.456;2022-11-20T22:36:11;-26079.28;;;-1.64;100.00
21664;BME280;10993;52.510;13.456;2022-11-20T22:41:15;-26087.28;;;-1.38;100.00
21664;BME280;10993;52.510;13.456;2022-11-20T22:46:17;-26081.22;;;-1.58;100.00
21664;BME280;10993;52.510;13.456;2022-11-20T22:51:20;-26082.50;;;-1.54;100.00
21664;BME280;10993;52.510;13.456;2022-11-20T22:56:22;-26085.38;;;-1.44;100.00
21664;BME280;10993;52.510;13.456;2022-11-20T23:01:23;-26082.00;;;-1.55;100.00
21664;BME280;10993;52.510;13.456;2022-11-20T23:06:24;-26077.38;;;-1.70;100.00
21664;BME280;10993;52.510;13.456;2022-11-20T23:11:28;-26080.09;;;-1.61;100.00
21664;BME280;10993;52.510;13.456;2022-11-20T23:16:29;-26086.97;;;-1.39;100.00
21664;BME280;10993;52.510;13.456;2022-11-20T23:21:30;-26089.66;;;-1.30;100.00
21664;BME280;10993;52.510;13.456;2022-11-20T23:26:33;-26095.91;;;-1.10;100.00
21664;BME280;10993;52.510;13.456;2022-11-20T23:31:34;-26104.19;;;-0.83;100.00
21664;BME280;10993;52.510;13.456;2022-11-20T23:36:35;-26102.91;;;-0.88;100.00
21664;BME280;10993;52.510;13.456;2022-11-20T23:41:36;-26104.19;;;-0.83;100.00
21664;BME280;10993;52.510;13.456;2022-11-20T23:46:37;-26106.59;;;-0.76;100.00
21664;BME280;10993;52.510;13.456;2022-11-20T23:51:37;-26105.16;;;-0.80;100.00
21664;BME280;10993;52.510;13.456;2022-11-20T23:56:39;-26107.22;;;-0.74;100.00
